createdAt,value
2019-04-23T00:02:18.592Z,9.33
2019-04-23T00:04:55.548Z,8.67
2019-04-23T00:07:43.152Z,9.33
2019-04-23T00:10:06.352Z,9.20
2019-04-23T00:15:09.279Z,9.00
2019-04-23T00:20:12.607Z,9.23
2019-04-23T00:22:51.820Z,9.13
2019-04-23T00:28:21.596Z,8.93
2019-04-23T00:33:25.294Z,9.10
2019-04-23T00:36:10.666Z,10.50
2019-04-23T00:40:59.608Z,8.70
2019-04-23T00:43:48.545Z,9.07
2019-04-23T00:45:59.693Z,10.60
2019-04-23T00:48:40.958Z,9.23
2019-04-23T00:51:02.337Z,10.70
2019-04-23T00:53:38.885Z,10.00
2019-04-23T00:56:32.441Z,9.33
2019-04-23T00:58:48.009Z,8.80
2019-04-23T01:01:22.508Z,9.97
2019-04-23T01:03:53.441Z,9.80
2019-04-23T01:09:00.031Z,9.80
2019-04-23T01:11:27.675Z,11.37
2019-04-23T01:13:52.993Z,12.30
2019-04-23T01:16:28.306Z,9.57
2019-04-23T01:19:27.138Z,11.23
2019-04-23T01:21:35.088Z,9.37
2019-04-23T01:24:32.483Z,10.47
2019-04-23T01:32:43.672Z,11.70
2019-04-23T01:35:17.575Z,10.83
2019-04-23T01:37:47.815Z,11.30
2019-04-23T01:40:25.981Z,9.90
2019-04-23T01:42:48.958Z,10.93
2019-04-23T01:45:30.730Z,10.30
2019-04-23T01:47:58.064Z,10.40
2019-04-23T01:50:33.881Z,10.50
2019-04-23T01:55:36.739Z,10.43
2019-04-23T01:58:27.485Z,11.43
2019-04-23T02:00:44.550Z,10.70
2019-04-23T02:03:29.424Z,11.70
2019-04-23T02:08:13.951Z,10.70
2019-04-23T02:11:06.797Z,10.07
2019-04-23T02:13:27.281Z,11.13
2019-04-23T02:15:55.480Z,10.80
2019-04-23T02:18:43.942Z,9.40
2019-04-23T02:21:16.856Z,9.77
2019-04-23T02:23:49.091Z,10.50
2019-04-23T02:26:26.443Z,10.40
2019-04-23T02:28:59.122Z,11.70
2019-04-23T02:31:45.170Z,10.30
2019-04-23T02:36:39.753Z,10.43
2019-04-23T02:39:22.631Z,9.60
2019-04-23T02:41:46.342Z,9.10
2019-04-23T02:46:43.594Z,10.20
2019-04-23T02:49:22.112Z,7.57
2019-04-23T02:51:51.084Z,8.73
2019-04-23T02:54:38.067Z,10.70
2019-04-23T02:56:51.450Z,10.53
2019-04-23T02:59:58.217Z,9.67
2019-04-23T03:04:50.308Z,10.13
2019-04-23T03:10:03.175Z,8.47
2019-04-23T03:12:44.137Z,9.90
2019-04-23T03:15:21.826Z,10.00
2019-04-23T03:20:59.508Z,8.10
2019-04-23T03:36:10.776Z,8.50
2019-04-23T03:38:48.717Z,7.80
2019-04-23T03:51:28.583Z,9.70
2019-04-23T03:54:11.752Z,7.93
2019-04-23T03:59:11.231Z,8.10
2019-04-23T04:01:40.374Z,8.10
2019-04-23T04:06:43.180Z,8.30
2019-04-23T04:11:29.189Z,9.80
2019-04-23T04:19:24.693Z,8.37
2019-04-23T04:22:00.232Z,8.43
2019-04-23T04:26:58.058Z,8.13
2019-04-23T04:29:47.427Z,6.87
2019-04-23T04:32:03.742Z,8.43
2019-04-23T04:34:55.532Z,8.47
2019-04-23T04:39:49.739Z,10.10
2019-04-23T04:49:51.709Z,8.30
2019-04-23T04:54:39.363Z,8.60
2019-04-23T04:57:30.179Z,9.23
2019-04-23T05:00:03.926Z,7.37
2019-04-23T05:02:53.090Z,7.63
2019-04-23T05:05:05.186Z,7.13
2019-04-23T05:12:27.556Z,7.37
2019-04-23T05:15:02.654Z,6.70
2019-04-23T05:17:51.920Z,8.20
2019-04-23T05:20:21.204Z,6.77
2019-04-23T05:23:03.488Z,7.90
2019-04-23T05:25:17.506Z,7.60
2019-04-23T05:30:33.084Z,7.70
2019-04-23T05:32:57.966Z,8.10
2019-04-23T05:38:08.884Z,5.80
2019-04-23T05:45:34.415Z,7.40
2019-04-23T05:48:12.978Z,7.60
2019-04-23T05:53:12.308Z,6.87
2019-04-23T05:55:51.610Z,7.30
2019-04-23T05:58:22.110Z,6.23
2019-04-23T06:01:08.165Z,6.60
2019-04-23T06:03:24.874Z,8.07
2019-04-23T06:08:33.652Z,6.40
2019-04-23T06:11:02.461Z,7.80
2019-04-23T06:13:36.193Z,7.13
2019-04-23T06:16:05.234Z,7.30
2019-04-23T06:18:40.830Z,6.67
2019-04-23T06:21:10.182Z,6.27
2019-04-23T06:23:43.569Z,6.70
2019-04-23T06:28:43.690Z,7.27
2019-04-23T06:33:47.949Z,6.57
2019-04-23T06:38:56.893Z,6.30
2019-04-23T06:44:22.473Z,6.70
2019-04-23T06:46:39.790Z,6.30
2019-04-23T06:49:09.453Z,4.97
2019-04-23T06:51:44.073Z,6.60
2019-04-23T06:54:12.329Z,5.53
2019-04-23T06:56:54.281Z,6.33
2019-04-23T06:59:17.015Z,5.80
2019-04-23T07:01:54.468Z,6.50
2019-04-23T07:04:32.757Z,7.00
2019-04-23T07:07:19.176Z,5.80
2019-04-23T07:09:42.358Z,5.50
2019-04-23T07:11:55.516Z,5.87
2019-04-23T07:14:42.420Z,7.03
2019-04-23T07:17:03.811Z,7.13
2019-04-23T07:19:35.587Z,6.43
2019-04-23T07:22:14.512Z,5.50
2019-04-23T07:24:41.945Z,6.70
2019-04-23T07:27:13.457Z,7.10
2019-04-23T07:29:50.082Z,6.63
2019-04-23T07:32:15.654Z,5.00
2019-04-23T07:34:55.290Z,5.87
2019-04-23T07:37:30.759Z,5.33
2019-04-23T07:40:22.986Z,6.30
2019-04-23T07:42:51.219Z,6.00
2019-04-23T07:45:30.268Z,5.60
2019-04-23T07:48:16.627Z,5.77
2019-04-23T07:53:23.326Z,5.37
2019-04-23T07:58:25.773Z,5.60
2019-04-23T08:01:09.933Z,5.63
2019-04-23T08:03:39.805Z,5.77
2019-04-23T08:06:03.933Z,6.47
2019-04-23T08:08:33.277Z,6.30
2019-04-23T08:16:31.174Z,5.60
2019-04-23T08:21:29.068Z,5.20
2019-04-23T08:24:40.833Z,5.10
2019-04-23T08:27:25.060Z,5.17
2019-04-23T08:29:55.834Z,5.10
2019-04-23T08:32:22.782Z,5.73
2019-04-23T08:38:04.565Z,4.60
2019-04-23T08:40:09.642Z,5.40
2019-04-23T08:45:21.738Z,5.30
2019-04-23T08:48:09.818Z,6.37
2019-04-23T08:53:17.893Z,4.93
2019-04-23T08:55:46.857Z,5.53
2019-04-23T08:58:13.315Z,4.40
2019-04-23T09:00:51.821Z,6.37
2019-04-23T09:06:00.630Z,5.27
2019-04-23T09:11:06.794Z,5.50
2019-04-23T09:16:01.800Z,4.43
2019-04-23T09:18:37.073Z,5.03
2019-04-23T09:21:16.054Z,3.70
2019-04-23T09:23:46.958Z,4.50
2019-04-23T09:26:30.902Z,4.63
2019-04-23T09:28:51.850Z,5.50
2019-04-23T09:31:45.671Z,4.10
2019-04-23T09:34:04.934Z,5.17
2019-04-23T09:37:06.211Z,5.00
2019-04-23T09:39:58.774Z,3.40
2019-04-23T09:43:13.778Z,5.90
2019-04-23T09:45:57.746Z,4.23
2019-04-23T09:48:33.586Z,4.43
2019-04-23T09:51:02.502Z,4.77
2019-04-23T09:53:58.070Z,4.60
2019-04-23T09:56:14.650Z,5.30
2019-04-23T09:59:07.399Z,4.67
2019-04-23T10:03:50.848Z,4.17
2019-04-23T10:06:18.300Z,4.60
2019-04-23T10:08:47.424Z,4.37
2019-04-23T10:11:16.055Z,4.40
2019-04-23T10:13:50.464Z,4.90
2019-04-23T10:16:23.652Z,4.70
2019-04-23T10:18:55.148Z,4.20
2019-04-23T10:21:26.238Z,4.97
2019-04-23T10:23:59.254Z,4.70
2019-04-23T10:26:30.414Z,4.30
2019-04-23T10:29:05.545Z,4.57
2019-04-23T10:31:37.482Z,4.10
2019-04-23T10:34:08.273Z,4.50
2019-04-23T10:36:42.164Z,3.03
2019-04-23T10:39:19.583Z,4.57
2019-04-23T10:41:47.898Z,4.13
2019-04-23T10:44:23.333Z,4.20
2019-04-23T10:47:41.565Z,3.70
2019-04-23T10:50:40.728Z,4.57
2019-04-23T10:53:19.836Z,3.70
2019-04-23T10:55:46.811Z,4.93
2019-04-23T10:58:16.434Z,3.83
2019-04-23T11:00:54.136Z,4.90
2019-04-23T11:05:59.121Z,5.10
2019-04-23T11:08:31.828Z,4.23
2019-04-23T11:11:09.465Z,3.60
2019-04-23T11:13:39.033Z,4.67
2019-04-23T11:16:41.997Z,5.00
2019-04-23T11:21:24.069Z,4.73
2019-04-23T11:23:51.900Z,5.60
2019-04-23T11:26:28.599Z,4.53
2019-04-23T11:28:59.850Z,6.10
2019-04-23T11:31:39.537Z,5.33
2019-04-23T11:34:19.723Z,5.80
2019-04-23T11:39:17.094Z,3.97
2019-04-23T11:44:18.799Z,4.67
2019-04-23T11:49:34.672Z,4.70
2019-04-23T11:52:01.701Z,6.27
2019-04-23T11:54:24.181Z,5.13
2019-04-23T11:57:22.245Z,4.07
2019-04-23T11:59:43.580Z,3.87
2019-04-23T12:02:19.411Z,4.60
2019-04-23T12:07:37.591Z,4.63
2019-04-23T12:10:23.677Z,3.77
2019-04-23T12:13:03.856Z,5.67
2019-04-23T12:15:25.366Z,5.10
2019-04-23T12:18:11.006Z,5.70
2019-04-23T12:20:33.734Z,5.70
2019-04-23T12:23:29.571Z,5.40
2019-04-23T12:25:36.591Z,4.97
2019-04-23T12:27:59.554Z,5.80
2019-04-23T12:30:46.120Z,3.93
2019-04-23T12:33:11.616Z,6.57
2019-04-23T12:35:40.429Z,6.83
2019-04-23T12:40:51.126Z,6.60
2019-04-23T12:43:18.975Z,5.20
2019-04-23T12:45:47.080Z,6.23
2019-04-23T12:48:44.043Z,5.40
2019-04-23T12:51:01.281Z,5.13
2019-04-23T12:53:37.942Z,5.40
2019-04-23T12:56:06.857Z,5.80
2019-04-23T12:58:32.129Z,5.97
2019-04-23T13:01:07.294Z,4.07
2019-04-23T13:06:11.369Z,5.77
2019-04-23T13:11:21.534Z,4.73
2019-04-23T13:13:58.898Z,7.33
2019-04-23T13:16:38.022Z,5.40
2019-04-23T13:19:05.736Z,5.60
2019-04-23T13:21:53.502Z,5.50
2019-04-23T13:24:18.746Z,6.77
2019-04-23T13:26:44.528Z,5.40
2019-04-23T13:29:34.442Z,4.90
2019-04-23T13:31:55.812Z,5.43
2019-04-23T13:34:38.464Z,6.10
2019-04-23T13:37:01.569Z,6.97
2019-04-23T13:39:34.000Z,5.57
2019-04-23T13:42:07.427Z,5.73
2019-04-23T13:44:38.223Z,4.40
2019-04-23T13:47:15.695Z,5.50
2019-04-23T13:49:42.046Z,6.87
2019-04-23T13:52:37.861Z,6.07
2019-04-23T13:54:59.603Z,6.70
2019-04-23T13:57:44.971Z,5.50
2019-04-23T13:59:48.310Z,5.33
2019-04-23T14:02:34.286Z,5.80
2019-04-23T14:05:13.001Z,5.63
2019-04-23T14:13:10.813Z,6.50
2019-04-23T14:18:36.448Z,5.80
2019-04-23T14:20:34.860Z,5.83
2019-04-23T14:25:50.597Z,5.93
2019-04-23T14:30:55.496Z,6.70
2019-04-23T14:43:31.371Z,7.50
2019-04-23T14:48:56.941Z,9.00
2019-04-23T14:51:31.552Z,8.93
2019-04-23T14:54:00.136Z,8.13
2019-04-23T14:56:37.482Z,8.07
2019-04-23T14:59:10.965Z,10.00
2019-04-23T15:01:47.566Z,9.23
2019-04-23T15:04:01.579Z,9.37
2019-04-23T15:06:46.709Z,10.20
2019-04-23T15:11:53.400Z,9.27
2019-04-23T15:14:17.748Z,9.60
2019-04-23T15:16:51.459Z,9.00
2019-04-23T15:19:37.297Z,8.73
2019-04-23T15:29:31.889Z,7.53
2019-04-23T15:32:34.323Z,7.50
2019-04-23T15:35:02.968Z,8.37
2019-04-23T15:37:41.554Z,8.90
2019-04-23T15:40:00.842Z,7.33
2019-04-23T15:42:31.369Z,8.73
2019-04-23T15:45:09.270Z,8.10
2019-04-23T15:47:40.053Z,9.30
2019-04-23T15:52:53.085Z,8.70
2019-04-23T15:55:14.462Z,9.60
2019-04-23T15:58:05.410Z,8.83
2019-04-23T16:00:15.763Z,9.87
2019-04-23T16:02:21.658Z,9.27
2019-04-23T16:04:53.171Z,10.17
2019-04-23T16:07:45.844Z,9.93
2019-04-23T16:10:29.614Z,10.57
2019-04-23T16:13:02.926Z,9.70
2019-04-23T16:15:29.154Z,10.63
2019-04-23T16:18:31.248Z,12.80
2019-04-23T16:21:00.862Z,10.40
2019-04-23T16:23:26.328Z,11.33
2019-04-23T16:25:58.460Z,11.50
2019-04-23T16:28:42.202Z,10.67
2019-04-23T16:31:15.013Z,12.10
2019-04-23T16:33:48.559Z,12.27
2019-04-23T16:36:23.116Z,14.67
2019-04-23T16:38:54.503Z,12.27
2019-04-23T16:41:24.394Z,13.27
2019-04-23T16:43:57.722Z,12.13
2019-04-23T16:46:25.195Z,12.20
2019-04-23T16:49:10.191Z,12.00
2019-04-23T16:51:32.434Z,11.80
2019-04-23T16:54:09.903Z,12.93
2019-04-23T16:56:55.235Z,12.63
2019-04-23T17:01:46.969Z,12.77
2019-04-23T17:09:22.004Z,12.77
2019-04-23T17:12:03.083Z,10.77
2019-04-23T17:14:32.212Z,10.27
2019-04-23T17:16:49.905Z,11.17
2019-04-23T17:19:29.490Z,11.73
2019-04-23T17:22:04.320Z,10.60
2019-04-23T17:24:29.990Z,11.10
2019-04-23T17:27:16.654Z,10.67
2019-04-23T17:32:18.067Z,10.23
2019-04-23T17:35:04.809Z,10.10
2019-04-23T17:37:33.309Z,11.37
2019-04-23T17:43:01.734Z,10.47
2019-04-23T17:45:45.184Z,9.57
2019-04-23T17:48:41.924Z,10.10
2019-04-23T17:56:16.727Z,10.13
2019-04-23T18:01:21.893Z,10.10
2019-04-23T18:03:57.432Z,9.50
2019-04-23T18:06:38.008Z,10.60
2019-04-23T18:09:03.745Z,8.77
2019-04-23T18:14:02.602Z,9.43
2019-04-23T18:16:41.172Z,10.37
2019-04-23T18:19:14.599Z,9.87
2019-04-23T18:21:50.676Z,9.50
2019-04-23T18:24:36.655Z,9.40
2019-04-23T18:27:15.433Z,8.60
2019-04-23T18:30:02.864Z,9.03
2019-04-23T18:32:42.953Z,11.27
2019-04-23T18:37:41.467Z,10.10
2019-04-23T18:40:12.216Z,9.47
2019-04-23T18:45:32.748Z,9.83
2019-04-23T18:48:33.670Z,9.97
2019-04-23T18:51:00.206Z,9.40
2019-04-23T18:53:41.221Z,9.47
2019-04-23T18:58:44.660Z,9.97
2019-04-23T19:01:05.337Z,9.63
2019-04-23T19:04:21.587Z,11.97
2019-04-23T19:06:44.150Z,10.10
2019-04-23T19:12:56.986Z,9.80
2019-04-23T19:15:37.986Z,9.47
2019-04-23T19:18:18.721Z,10.57
2019-04-23T19:20:53.833Z,11.13
2019-04-23T19:25:45.440Z,11.63
2019-04-23T19:31:01.844Z,10.27
2019-04-23T19:33:47.904Z,11.13
2019-04-23T19:36:11.472Z,9.77
2019-04-23T19:38:43.450Z,6.97
2019-04-23T19:41:19.220Z,7.80
2019-04-23T19:43:53.171Z,7.80
2019-04-23T19:48:57.772Z,6.50
2019-04-23T19:51:26.960Z,6.50
2019-04-23T19:54:16.714Z,6.23
2019-04-23T19:59:01.834Z,8.37
2019-04-23T20:01:39.692Z,6.57
2019-04-23T20:04:07.752Z,6.50
2019-04-23T20:09:30.857Z,7.60
2019-04-23T20:11:52.981Z,7.03
2019-04-23T20:14:19.372Z,6.20
2019-04-23T20:19:35.939Z,8.40
2019-04-23T20:22:00.412Z,6.60
2019-04-23T20:24:41.836Z,7.23
2019-04-23T20:27:11.845Z,6.77
2019-04-23T20:30:14.578Z,6.90
2019-04-23T20:40:25.858Z,6.53
2019-04-23T20:42:53.006Z,6.60
2019-04-23T20:45:20.650Z,6.30
2019-04-23T20:48:01.977Z,6.80
2019-04-23T20:50:26.179Z,6.10
2019-04-23T20:52:57.510Z,5.10
2019-04-23T20:58:14.100Z,6.07
2019-04-23T21:01:00.305Z,6.30
2019-04-23T21:06:07.059Z,7.03
2019-04-23T21:08:52.433Z,6.40
2019-04-23T21:11:05.286Z,5.47
2019-04-23T21:14:02.076Z,4.57
2019-04-23T21:16:13.247Z,4.07
2019-04-23T21:18:44.326Z,5.20
2019-04-23T21:21:17.958Z,4.30
2019-04-23T21:26:22.223Z,4.77
2019-04-23T21:28:54.264Z,4.57
2019-04-23T21:31:31.951Z,4.23
2019-04-23T21:34:04.246Z,4.20
2019-04-23T21:40:00.998Z,3.90
2019-04-23T21:42:20.823Z,3.00
2019-04-23T21:45:10.371Z,3.07
2019-04-23T21:47:15.037Z,3.40
2019-04-23T21:50:00.798Z,2.47
2019-04-23T21:52:25.578Z,2.90
2019-04-23T21:54:56.903Z,3.07
2019-04-23T21:57:37.073Z,3.50
2019-04-23T22:00:02.491Z,4.37
2019-04-23T22:02:57.435Z,3.20
2019-04-23T22:05:12.674Z,2.77
2019-04-23T22:07:51.532Z,2.50
2019-04-23T22:10:12.091Z,3.20
2019-04-23T22:13:00.557Z,2.83
2019-04-23T22:15:13.091Z,2.63
2019-04-23T22:20:25.765Z,2.80
2019-04-23T22:25:33.106Z,3.23
2019-04-23T22:28:08.291Z,2.50
2019-04-23T22:30:37.059Z,2.67
2019-04-23T22:35:43.211Z,3.00
2019-04-23T22:40:42.356Z,2.77
2019-04-23T22:45:52.676Z,2.47
2019-04-23T22:48:13.727Z,1.97
2019-04-23T22:50:57.226Z,2.77
2019-04-23T22:53:13.768Z,3.27
2019-04-23T22:58:22.284Z,2.30
2019-04-23T23:01:26.065Z,1.73
2019-04-23T23:06:48.863Z,2.23
2019-04-23T23:09:19.246Z,2.43
2019-04-23T23:11:49.748Z,1.90
2019-04-23T23:14:27.538Z,2.97
2019-04-23T23:16:50.345Z,2.17
2019-04-23T23:19:28.265Z,1.80
2019-04-23T23:22:03.343Z,1.83
2019-04-23T23:24:18.395Z,2.97
2019-04-23T23:29:34.653Z,1.90
2019-04-23T23:34:38.291Z,1.80
2019-04-23T23:37:07.541Z,1.80
2019-04-23T23:42:19.623Z,2.37
2019-04-23T23:47:14.857Z,1.50
2019-04-23T23:49:56.368Z,2.03
2019-04-23T23:52:21.734Z,2.03
2019-04-23T23:55:01.428Z,1.50
2019-04-23T23:57:21.527Z,1.33
